Time;durP1;ratioP1;P1;durP2;ratioP2;P2;SDS_P1;SDS_P2;PMS_P1;PMS_P2;Temp;Humidity;BMP_temperature;BMP_pressure;BME280_temperature;BME280_humidity;BME280_pressure;Samples;Min_cycle;Max_cycle;Signal;HPM_P1;HPM_P2
2021/07/20 05:31:29;;;;;;;9.05;6.45;;;;;;;18.14;72.24;100250.38;1746221;77;25827;-72
2021/07/20 05:33:56;;;;;;;11.78;6.62;;;;;;;18.32;72.24;100245.23;1749786;81;27391;-72
2021/07/20 05:36:24;;;;;;;10.08;6.83;;;;;;;18.44;71.85;100247.24;1718686;82;25736;-71
2021/07/20 05:38:50;;;;;;;8.90;6.58;;;;;;;18.59;71.62;100247.48;1689688;82;25818;-71
2021/07/20 05:41:17;;;;;;;10.50;6.50;;;;;;;18.73;71.28;100245.02;1692177;83;25945;-71
2021/07/20 05:43:44;;;;;;;9.65;6.22;;;;;;;18.90;71.17;100247.87;1715685;83;25708;-72
2021/07/20 05:46:11;;;;;;;12.05;6.53;;;;;;;19.07;70.75;100246.58;1699369;81;28271;-71
2021/07/20 05:48:38;;;;;;;9.10;6.37;;;;;;;19.20;70.31;100247.92;1716665;81;25789;-72
2021/07/20 05:51:05;;;;;;;9.00;6.70;;;;;;;19.39;70.63;100245.69;1744807;81;25691;-72
2021/07/20 05:53:33;;;;;;;9.30;5.72;;;;;;;19.59;70.44;100242.81;1724179;81;25732;-72
2021/07/20 05:56:03;;;;;;;10.48;6.30;;;;;;;19.80;70.17;100240.16;1708892;81;25392;-72
2021/07/20 05:58:31;;;;;;;14.15;6.42;;;;;;;20.00;69.64;100237.47;1749285;81;27430;-72
2021/07/20 06:01:04;;;;;;;12.50;6.47;;;;;;;20.18;69.51;100241.80;1715235;81;25863;-72
2021/07/20 06:03:33;;;;;;;14.95;6.85;;;;;;;20.41;69.18;100247.72;1748122;81;25692;-72
2021/07/20 06:06:00;;;;;;;8.80;6.22;;;;;;;20.62;69.02;100234.77;1720545;82;32731;-73
2021/07/20 06:08:28;;;;;;;9.43;6.60;;;;;;;20.82;68.52;100233.43;1726119;81;25758;-74
2021/07/20 06:11:04;;;;;;;10.13;6.00;;;;;;;21.03;68.42;100231.42;1744949;81;27882;-70
2021/07/20 06:13:38;;;;;;;9.23;5.72;;;;;;;21.26;67.90;100236.67;1746138;81;26019;-71
2021/07/20 06:16:07;;;;;;;9.25;6.50;;;;;;;21.47;67.69;100238.03;1740177;81;25794;-71
2021/07/20 06:18:38;;;;;;;10.28;5.95;;;;;;;21.68;67.31;100235.97;1711155;82;34964;-64
2021/07/20 06:21:11;;;;;;;10.82;6.03;;;;;;;21.88;66.91;100236.45;1728624;81;25706;-64
2021/07/20 06:23:46;;;;;;;8.23;5.10;;;;;;;22.06;66.48;100238.47;1698990;84;27911;-71
2021/07/20 06:26:20;;;;;;;8.35;4.62;;;;;;;22.25;66.28;100238.12;1692422;84;25757;-71
2021/07/20 06:28:48;;;;;;;7.08;4.47;;;;;;;22.43;65.35;100236.05;1724525;81;25775;-71
2021/07/20 06:31:19;;;;;;;10.40;6.22;;;;;;;22.61;64.72;100234.67;1710388;82;25809;-70
2021/07/20 06:33:47;;;;;;;6.83;5.33;;;;;;;22.74;64.38;100224.23;1744354;82;25983;-71
2021/07/20 06:36:17;;;;;;;8.48;4.42;;;;;;;22.93;64.26;100231.92;1785776;79;27320;-71
2021/07/20 06:38:44;;;;;;;11.12;4.35;;;;;;;23.12;63.84;100226.61;1791053;79;25736;-71
2021/07/20 06:41:12;;;;;;;12.68;10.15;;;;;;;23.28;63.21;100235.27;1791383;79;25728;-71
2021/07/20 06:43:41;;;;;;;10.08;3.95;;;;;;;23.41;62.29;100227.94;1791191;79;26384;-71
2021/07/20 06:46:09;;;;;;;6.67;3.92;;;;;;;23.55;61.98;100227.91;1791034;79;26304;-71
2021/07/20 06:48:45;;;;;;;10.70;3.80;;;;;;;23.71;61.88;100228.83;1791439;79;27377;-71
2021/07/20 06:51:11;;;;;;;5.65;3.58;;;;;;;23.92;61.49;100235.48;1790972;79;25731;-72
2021/07/20 06:53:38;;;;;;;6.78;3.45;;;;;;;24.05;60.80;100234.63;1791444;79;26433;-72
2021/07/20 06:56:09;;;;;;;5.58;3.67;;;;;;;24.23;60.57;100235.92;1791595;79;26390;-72
2021/07/20 06:58:40;;;;;;;5.75;3.87;;;;;;;24.37;59.72;100235.64;1786250;79;25745;-73
2021/07/20 07:01:10;;;;;;;8.68;4.08;;;;;;;24.55;59.73;100232.77;1790973;79;28028;-73
2021/07/20 07:03:54;;;;;;;9.98;3.70;;;;;;;24.72;59.25;100231.06;1751732;79;25876;-72
2021/07/20 07:06:24;;;;;;;3.85;2.77;;;;;;;24.98;59.48;100237.97;1786737;79;25676;-73
2021/07/20 07:08:54;;;;;;;4.50;3.30;;;;;;;25.24;58.79;100234.36;1790593;79;25684;-73
2021/07/20 07:11:22;;;;;;;4.40;2.70;;;;;;;25.46;58.08;100234.34;1790198;79;25748;-73
2021/07/20 07:13:49;;;;;;;2.92;2.47;;;;;;;25.70;57.85;100232.48;1789668;79;28163;-73
2021/07/20 07:16:17;;;;;;;5.65;2.90;;;;;;;25.80;56.57;100230.79;1790013;79;25775;-72
2021/07/20 07:18:45;;;;;;;6.58;4.67;;;;;;;25.93;55.79;100226.08;1791584;79;29272;-72
2021/07/20 07:21:15;;;;;;;7.42;4.33;;;;;;;26.11;55.82;100225.88;1790851;79;26181;-73
2021/07/20 07:23:45;;;;;;;4.22;3.10;;;;;;;26.35;55.21;100229.48;1790944;79;25656;-73
2021/07/20 07:26:14;;;;;;;7.67;3.02;;;;;;;26.58;54.84;100228.14;1789706;79;27497;-65
2021/07/20 07:28:43;;;;;;;7.00;3.05;;;;;;;26.82;54.16;100228.19;1790271;79;25373;-65
2021/07/20 07:31:13;;;;;;;8.43;3.33;;;;;;;27.12;53.39;100226.47;1788636;79;25668;-65
2021/07/20 07:33:40;;;;;;;4.10;2.55;;;;;;;27.35;53.00;100234.79;1778591;80;25740;-65
2021/07/20 07:36:09;;;;;;;6.60;3.00;;;;;;;27.52;51.43;100229.33;1781121;80;25726;-64
2021/07/20 07:38:39;;;;;;;2.87;2.45;;;;;;;27.55;50.96;100231.25;1775732;80;33177;-65
2021/07/20 07:41:06;;;;;;;5.45;2.92;;;;;;;27.72;50.71;100230.69;1780754;80;25689;-65
2021/07/20 07:43:34;;;;;;;5.30;3.42;;;;;;;27.88;49.89;100229.98;1781041;80;25905;-65
2021/07/20 07:46:03;;;;;;;6.57;2.93;;;;;;;27.78;49.36;100221.27;1781848;80;26308;-65
2021/07/20 07:48:36;;;;;;;5.35;2.90;;;;;;;27.70;48.91;100225.59;1780886;80;25766;-65
2021/07/20 07:50:59;;;;;;;3.50;2.83;;;;;;;27.56;48.47;100226.63;1780603;80;27480;-65
2021/07/20 07:53:26;;;;;;;6.95;2.50;;;;;;;27.35;48.68;100236.17;1781988;80;27260;-65
2021/07/20 07:55:54;;;;;;;5.58;3.02;;;;;;;27.24;48.36;100226.45;1780087;80;25905;-65
2021/07/20 07:58:23;;;;;;;2.50;2.12;;;;;;;27.27;48.44;100229.77;1779711;80;25823;-65
2021/07/20 08:00:51;;;;;;;3.50;2.80;;;;;;;27.50;47.91;100221.41;1779923;80;25860;-65
2021/07/20 08:03:18;;;;;;;5.28;2.60;;;;;;;27.55;46.78;100225.70;1781596;80;27556;-65
2021/07/20 08:05:47;;;;;;;4.62;2.92;;;;;;;27.46;46.83;100233.19;1781081;80;25869;-65
2021/07/20 08:08:16;;;;;;;6.90;2.80;;;;;;;27.34;46.96;100231.82;1781661;80;28763;-65
2021/07/20 08:10:44;;;;;;;2.70;2.47;;;;;;;27.48;47.09;100232.17;1751486;80;26887;-65
2021/07/20 08:13:14;;;;;;;3.73;2.83;;;;;;;27.49;47.12;100235.73;1781220;79;25696;-65
2021/07/20 08:15:41;;;;;;;3.47;2.65;;;;;;;27.50;46.70;100232.53;1779421;80;27316;-65
2021/07/20 08:18:09;;;;;;;4.67;2.55;;;;;;;27.43;46.62;100232.67;1780633;80;25650;-65
2021/07/20 08:20:37;;;;;;;5.87;2.75;;;;;;;27.65;47.26;100235.01;1778585;80;25719;-65
2021/07/20 08:23:04;;;;;;;4.65;2.92;;;;;;;27.82;46.50;100234.46;1777778;80;25791;-65
2021/07/20 08:25:39;;;;;;;3.90;2.67;;;;;;;27.93;46.10;100234.45;1782353;80;26285;-65
2021/07/20 08:28:16;;;;;;;3.65;2.83;;;;;;;28.07;45.84;100235.35;1780923;80;27414;-65
2021/07/20 08:30:47;;;;;;;3.60;2.30;;;;;;;28.33;45.93;100233.56;1778368;80;25745;-65
2021/07/20 08:33:25;;;;;;;7.33;5.25;;;;;;;28.63;45.45;100241.45;1779808;80;25703;-65
2021/07/20 08:35:56;;;;;;;7.45;2.52;;;;;;;28.99;44.31;100230.81;1781078;80;26317;-65
2021/07/20 08:38:22;;;;;;;4.87;2.30;;;;;;;29.28;44.11;100233.64;1749216;80;25766;-65
2021/07/20 08:41:09;;;;;;;2.77;1.98;;;;;;;29.54;43.12;100239.30;1779539;80;27317;-65
2021/07/20 08:44:06;;;;;;;2.67;2.30;;;;;;;29.86;42.83;100232.83;1780830;80;25768;-66
2021/07/20 08:46:41;;;;;;;2.50;2.10;;;;;;;30.39;42.37;100234.45;1778876;80;25726;-66
2021/07/20 08:49:37;;;;;;;2.37;2.17;;;;;;;30.38;40.83;100229.50;1774874;80;25739;-75
2021/07/20 08:52:27;;;;;;;5.08;2.37;;;;;;;30.44;40.42;100219.94;1780008;80;25755;-74
2021/07/20 08:54:59;;;;;;;3.22;2.20;;;;;;;30.58;40.12;100219.48;1780819;80;27390;-74
2021/07/20 08:57:36;;;;;;;3.70;2.30;;;;;;;30.73;39.89;100223.96;1781485;80;25880;-75
2021/07/20 09:00:14;;;;;;;5.22;2.83;;;;;;;30.62;39.47;100229.91;1775309;80;25763;-75
2021/07/20 09:03:08;;;;;;;5.55;2.25;;;;;;;30.35;39.43;100227.56;1778060;80;26171;-66
2021/07/20 09:05:48;;;;;;;6.22;2.80;;;;;;;30.47;40.05;100220.45;1676934;84;25792;-65
2021/07/20 09:08:26;;;;;;;3.35;2.00;;;;;;;30.90;39.80;100221.80;1679204;84;27334;-65
2021/07/20 09:11:45;;;;;;;6.20;2.70;;;;;;;31.34;38.92;100214.13;1675787;85;25748;-65
2021/07/20 09:14:41;;;;;;;4.00;2.27;;;;;;;31.57;38.23;100214.33;1682425;84;25902;-74
2021/07/20 09:17:34;;;;;;;3.02;2.30;;;;;;;31.90;37.91;100218.84;1679024;84;25774;-65
2021/07/20 09:20:26;;;;;;;3.30;2.27;;;;;;;32.27;37.44;100210.64;1680834;84;25755;-75
2021/07/20 09:23:18;;;;;;;3.85;2.10;;;;;;;32.72;36.81;100207.03;1677046;84;27496;-74
2021/07/20 09:26:02;;;;;;;4.10;2.60;;;;;;;33.10;35.92;100209.39;1674864;84;25996;-75
2021/07/20 09:29:06;;;;;;;3.87;2.85;;;;;;;33.03;35.03;100207.52;1673130;84;26167;-74
2021/07/20 09:32:11;;;;;;;4.65;2.35;;;;;;;32.63;34.98;100207.80;1674281;85;26571;-65
2021/07/20 09:35:04;;;;;;;4.42;3.08;;;;;;;32.03;34.98;100215.33;1624375;87;25805;-65
2021/07/20 09:37:41;;;;;;;3.70;2.50;;;;;;;31.35;35.32;100214.30;1591980;89;27392;-65
2021/07/20 09:40:31;;;;;;;6.67;3.58;;;;;;;30.69;35.69;100212.15;1636342;86;25712;-65
2021/07/20 09:43:07;;;;;;;6.03;2.80;;;;;;;30.14;36.30;100210.28;1689248;83;25817;-65
2021/07/20 09:45:41;;;;;;;4.60;2.17;;;;;;;29.70;37.04;100211.38;1629999;87;25892;-65
2021/07/20 09:48:28;;;;;;;3.72;1.92;;;;;;;29.31;37.27;100211.10;1629370;86;26478;-65
2021/07/20 09:51:37;;;;;;;2.83;2.22;;;;;;;28.92;37.26;100199.77;1630046;87;27422;-65
2021/07/20 09:54:21;;;;;;;8.75;5.08;;;;;;;28.56;37.61;100198.51;1628113;87;25804;-65
2021/07/20 09:57:01;;;;;;;4.72;2.30;;;;;;;28.31;38.38;100209.58;1586920;89;25986;-65
2021/07/20 09:59:42;;;;;;;8.55;2.60;;;;;;;28.40;40.05;100200.63;1591867;89;26494;-65
2021/07/20 10:02:31;;;;;;;4.53;2.55;;;;;;;28.82;39.80;100200.20;1575009;89;25900;-65
2021/07/20 10:05:26;;;;;;;4.50;2.50;;;;;;;29.49;39.71;100200.25;1580691;90;27418;-74
2021/07/20 10:08:00;;;;;;;4.03;2.62;;;;;;;30.13;38.69;100198.95;1594195;86;25698;-65
2021/07/20 10:10:41;;;;;;;3.90;2.50;;;;;;;30.06;37.33;100196.38;1643634;86;26341;-65
2021/07/20 10:13:35;;;;;;;4.72;2.60;;;;;;;30.05;37.76;100197.59;1644898;86;27021;-65
2021/07/20 10:16:19;;;;;;;2.30;2.10;;;;;;;29.94;37.27;100194.38;1643832;86;26463;-73
2021/07/20 10:19:09;;;;;;;2.40;2.20;;;;;;;29.70;37.41;100191.86;1644016;86;27433;-74
2021/07/20 10:21:41;;;;;;;3.58;2.70;;;;;;;29.58;37.23;100196.81;1647071;86;25701;-74
2021/07/20 10:24:14;;;;;;;5.97;3.33;;;;;;;29.30;37.19;100188.02;1739034;82;25712;-74
2021/07/20 10:26:56;;;;;;;5.53;2.75;;;;;;;29.11;37.69;100188.94;1740756;82;25713;-65
2021/07/20 10:29:55;;;;;;;4.03;2.20;;;;;;;29.05;37.73;100184.52;1776306;79;25666;-65
2021/07/20 10:32:48;;;;;;;3.77;2.00;;;;;;;29.28;38.66;100186.30;1712078;82;27311;-74
2021/07/20 10:35:28;;;;;;;2.62;1.92;;;;;;;29.92;38.03;100176.70;1651243;86;25689;-74
2021/07/20 10:37:58;;;;;;;2.33;1.82;;;;;;;30.72;37.58;100170.78;1642552;86;25790;-74
2021/07/20 10:40:27;;;;;;;4.92;2.15;;;;;;;31.39;36.87;100170.23;1609432;87;26385;-75
2021/07/20 10:43:09;;;;;;;2.90;2.17;;;;;;;32.09;36.57;100172.17;1611489;87;25592;-75
2021/07/20 10:45:38;;;;;;;3.87;2.00;;;;;;;32.59;35.62;100169.36;1605808;88;28062;-65
2021/07/20 10:48:19;;;;;;;2.58;2.10;;;;;;;33.23;34.94;100167.22;1613121;87;27234;-65
2021/07/20 10:51:16;;;;;;;2.30;1.92;;;;;;;33.59;33.84;100176.02;1624128;86;26464;-65
2021/07/20 10:54:17;;;;;;;3.25;2.05;;;;;;;33.65;33.07;100160.89;1632005;86;26424;-65
2021/07/20 10:56:58;;;;;;;3.70;1.98;;;;;;;33.83;33.14;100160.09;1638205;86;25895;-74
2021/07/20 10:59:45;;;;;;;4.60;2.00;;;;;;;34.12;32.13;100154.47;1625495;86;28127;-75
2021/07/20 11:02:40;;;;;;;6.75;4.42;;;;;;;33.89;31.54;100164.42;1631111;86;25802;-75
2021/07/20 11:05:09;;;;;;;3.33;2.75;;;;;;;33.45;31.33;100165.62;1629282;86;26403;-75
2021/07/20 11:07:43;;;;;;;2.55;2.15;;;;;;;32.93;31.55;100161.91;1632207;86;34894;-66
2021/07/20 11:10:21;;;;;;;5.25;2.47;;;;;;;32.52;31.42;100157.05;1673921;84;25840;-66
2021/07/20 11:12:54;;;;;;;2.12;1.82;;;;;;;32.17;32.18;100163.66;1651785;84;27749;-65
2021/07/20 11:15:21;;;;;;;2.47;1.98;;;;;;;32.18;32.62;100158.84;1697502;83;25729;-66
2021/07/20 11:17:51;;;;;;;2.37;1.90;;;;;;;32.41;32.53;100150.50;1702029;84;26067;-66
2021/07/20 11:20:21;;;;;;;4.55;2.27;;;;;;;32.54;32.73;100160.18;1677798;83;26468;-66
2021/07/20 11:22:49;;;;;;;2.17;1.67;;;;;;;32.65;32.80;100154.14;1694574;84;25751;-66
2021/07/20 11:25:17;;;;;;;3.92;1.90;;;;;;;33.10;32.65;100149.77;1704481;84;29272;-66
2021/07/20 11:27:47;;;;;;;2.83;1.85;;;;;;;33.52;32.05;100142.72;1706765;84;25723;-66
2021/07/20 11:30:18;;;;;;;3.98;2.00;;;;;;;33.82;31.33;100141.70;1676214;83;25662;-66
2021/07/20 11:33:05;;;;;;;59.10;56.05;;;;;;;34.27;31.68;100143.36;1740026;81;26106;-66
2021/07/20 11:35:36;;;;;;;2.27;1.67;;;;;;;34.72;30.20;100140.72;1669870;84;25803;-66
2021/07/20 11:38:17;;;;;;;56.83;54.08;;;;;;;35.04;29.07;100135.45;1675370;84;27333;-66
2021/07/20 11:41:09;;;;;;;56.45;53.73;;;;;;;35.22;28.70;100135.94;1673217;84;25709;-65
2021/07/20 11:43:50;;;;;;;56.65;53.95;;;;;;;35.54;28.29;100135.59;1675645;84;25742;-66
2021/07/20 11:46:29;;;;;;;56.75;54.00;;;;;;;35.81;27.92;100137.92;1673987;84;25836;-65
2021/07/20 11:49:04;;;;;;;63.50;60.48;;;;;;;35.81;27.05;100133.70;1658462;84;25883;-66
2021/07/20 11:51:39;;;;;;;57.38;54.60;;;;;;;35.32;26.61;100135.35;1647704;84;27897;-65
2021/07/20 11:54:14;;;;;;;60.80;57.38;;;;;;;34.82;27.20;100132.39;1667062;84;25881;-65
2021/07/20 11:57:09;;;;;;;42.55;40.30;;;;;;;34.90;27.38;100132.77;1672948;84;25845;-65
2021/07/20 12:00:06;;;;;;;2.40;1.60;;;;;;;35.19;27.70;100139.69;1634957;86;25827;-75
2021/07/20 12:02:50;;;;;;;3.25;1.90;;;;;;;35.54;27.74;100133.54;1634219;86;25749;-75
2021/07/20 12:05:55;;;;;;;58.17;55.23;;;;;;;35.80;27.46;100128.72;1632502;86;27487;-74
2021/07/20 12:09:02;;;;;;;57.80;54.88;;;;;;;35.82;26.96;100126.19;1606720;88;26037;-74
2021/07/20 12:11:32;;;;;;;55.75;52.78;;;;;;;35.33;26.22;100124.27;1591788;87;25787;-65
2021/07/20 12:14:11;;;;;;;55.48;52.65;;;;;;;34.87;26.94;100123.91;1672080;85;25839;-76
2021/07/20 12:16:41;;;;;;;58.35;55.33;;;;;;;34.63;27.04;100122.52;1664906;85;25771;-74
2021/07/20 12:19:09;;;;;;;57.70;54.80;;;;;;;34.38;27.22;100122.55;1672435;85;27360;-73
2021/07/20 12:21:39;;;;;;;56.45;53.68;;;;;;;34.41;27.04;100120.80;1672796;85;25888;-75
2021/07/20 12:24:12;;;;;;;58.25;55.25;;;;;;;34.18;26.83;100114.70;1667202;86;25820;-76
2021/07/20 12:26:42;;;;;;;56.10;53.33;;;;;;;33.93;27.31;100116.56;1665370;86;26166;-75
2021/07/20 12:29:10;;;;;;;58.85;55.88;;;;;;;33.89;27.39;100108.33;1665473;86;25970;-75
2021/07/20 12:31:38;;;;;;;59.03;55.92;;;;;;;34.11;27.64;100105.23;1660884;86;27395;-75
2021/07/20 12:34:07;;;;;;;56.92;54.13;;;;;;;34.38;27.69;100103.54;1632093;86;25696;-75
2021/07/20 12:36:38;;;;;;;56.60;53.78;;;;;;;34.71;27.31;100109.06;1632602;86;25751;-75
2021/07/20 12:39:18;;;;;;;52.58;49.77;;;;;;;34.98;26.49;100102.41;1631499;86;25795;-75
2021/07/20 12:41:52;;;;;;;2.58;1.47;;;;;;;35.06;26.32;100111.86;1683742;84;25790;-75
2021/07/20 12:44:22;;;;;;;1.70;1.50;;;;;;;34.90;26.34;100113.88;1717797;79;28001;-75
2021/07/20 12:46:51;;;;;;;2.40;1.50;;;;;;;34.63;26.77;100106.44;1750666;79;25804;-65
2021/07/20 12:49:18;;;;;;;2.02;1.40;;;;;;;34.71;26.89;100107.66;1781910;79;25395;-65
2021/07/20 12:51:49;;;;;;;3.92;1.90;;;;;;;34.57;26.76;100108.37;1785141;79;25673;-65
2021/07/20 12:54:36;;;;;;;4.10;1.47;;;;;;;34.28;26.76;100110.47;1762879;80;25762;-65
2021/07/20 12:57:05;;;;;;;1.60;1.30;;;;;;;33.86;27.02;100110.67;1762220;80;27347;-65
2021/07/20 12:59:39;;;;;;;3.40;1.40;;;;;;;33.85;27.55;100114.72;1760809;80;25751;-65
2021/07/20 13:02:14;;;;;;;1.30;1.20;;;;;;;33.97;26.77;100111.54;1762677;80;25699;-65
2021/07/20 13:04:37;;;;;;;1.72;1.55;;;;;;;33.64;27.04;100106.05;1763112;80;26289;-65
2021/07/20 13:07:07;;;;;;;2.37;1.80;;;;;;;33.64;27.04;100106.05;1764691;80;25695;-66
2021/07/20 13:09:33;;;;;;;4.58;1.55;;;;;;;33.34;26.46;100103.69;1748983;80;27028;-66
2021/07/20 13:12:02;;;;;;;3.58;1.30;;;;;;;33.15;27.06;100102.94;1786132;79;25651;-75
2021/07/20 13:14:35;;;;;;;;;;;;;;;33.36;27.48;100099.79;1739162;80;26452;-76
2021/07/20 13:17:03;;;;;;;1.60;1.42;;;;;;;33.56;27.08;100101.27;1764008;80;26341;-74
2021/07/20 13:19:32;;;;;;;1.50;1.10;;;;;;;33.75;26.92;100084.56;1755274;81;25770;-75
2021/07/20 13:21:59;;;;;;;2.62;1.37;;;;;;;33.67;26.48;100086.12;1763761;80;28009;-75
2021/07/20 13:24:28;;;;;;;3.77;1.40;;;;;;;33.36;26.44;100089.98;1754169;80;25796;-75
2021/07/20 13:26:57;;;;;;;2.45;1.40;;;;;;;32.95;26.56;100084.59;1765431;80;25872;-75
2021/07/20 13:29:25;;;;;;;2.22;1.50;;;;;;;32.35;27.21;100101.37;1765267;80;25923;-75
2021/07/20 13:31:52;;;;;;;3.35;1.72;;;;;;;32.35;27.21;100101.37;1756340;80;33755;-75
2021/07/20 13:34:21;;;;;;;2.30;1.50;;;;;;;31.94;28.12;100078.27;1758563;80;27463;-75
2021/07/20 13:36:50;;;;;;;2.17;1.55;;;;;;;31.77;28.00;100074.96;1760166;80;25729;-76
2021/07/20 13:39:18;;;;;;;5.35;2.40;;;;;;;31.53;28.24;100066.30;1767553;80;26420;-76
2021/07/20 13:41:46;;;;;;;2.60;1.52;;;;;;;31.53;28.87;100067.70;1763958;80;34953;-76
2021/07/20 13:44:15;;;;;;;2.22;1.55;;;;;;;31.83;29.46;100068.91;1752148;81;25720;-76
2021/07/20 13:46:44;;;;;;;;;;;;;;;32.14;28.87;100069.47;1740518;80;28406;-76
2021/07/20 13:49:11;;;;;;;;;;;;;;;32.36;28.65;100073.53;1766620;79;25977;-76
2021/07/20 13:51:41;;;;;;;1.95;1.60;;;;;;;32.56;28.12;100066.72;1764068;80;25633;-76
2021/07/20 13:54:10;;;;;;;4.33;1.52;;;;;;;32.69;28.05;100072.97;1764303;80;25681;-76
2021/07/20 13:56:44;;;;;;;3.67;1.20;;;;;;;32.81;27.13;100067.05;1762955;80;25333;-76
2021/07/20 13:59:18;;;;;;;1.70;1.42;;;;;;;32.81;26.86;100066.25;1759537;80;27326;-76
2021/07/20 14:01:45;;;;;;;1.57;1.47;;;;;;;32.81;26.98;100066.25;1765493;80;25674;-76
2021/07/20 14:04:13;;;;;;;1.57;1.45;;;;;;;32.95;27.12;100067.78;1754784;80;25714;-76
2021/07/20 14:06:41;;;;;;;3.35;1.52;;;;;;;33.01;26.70;100058.75;1766497;80;25730;-76
2021/07/20 14:09:13;;;;;;;5.58;1.62;;;;;;;33.09;26.75;100055.78;1768291;80;25693;-76
2021/07/20 14:11:42;;;;;;;3.90;1.42;;;;;;;33.17;26.90;100061.84;1764132;80;27312;-76
2021/07/20 14:14:11;;;;;;;3.05;1.55;;;;;;;33.25;27.02;100060.27;1764120;80;25740;-76
2021/07/20 14:16:41;;;;;;;2.98;1.25;;;;;;;33.26;26.82;100059.80;1756309;79;25669;-76
2021/07/20 14:19:12;;;;;;;4.53;3.83;;;;;;;33.24;26.50;100058.73;1763969;80;26349;-76
2021/07/20 14:21:43;;;;;;;1.67;1.47;;;;;;;33.21;26.46;100064.64;1760321;80;25745;-66
2021/07/20 14:24:13;;;;;;;2.27;1.75;;;;;;;33.13;26.06;100063.38;1763958;80;27373;-76
2021/07/20 14:26:49;;;;;;;2.08;1.30;;;;;;;33.09;25.95;100070.55;1760130;80;25739;-68
2021/07/20 14:29:23;;;;;;;2.10;1.67;;;;;;;33.05;26.32;100060.15;1761583;80;25873;-76
2021/07/20 14:31:50;;;;;;;1.55;1.40;;;;;;;33.05;26.25;100060.15;1753008;80;26298;-75
2021/07/20 14:34:19;;;;;;;3.08;1.67;;;;;;;33.03;26.12;100060.45;1731585;81;26073;-66
2021/07/20 14:36:53;;;;;;;7.55;2.52;;;;;;;32.98;26.17;100055.48;1748917;80;28197;-65
2021/07/20 14:39:32;;;;;;;2.08;1.55;;;;;;;32.95;26.05;100055.19;1784566;80;25993;-64
2021/07/20 14:42:22;;;;;;;2.08;1.70;;;;;;;32.88;26.42;100058.92;1736324;81;25889;-66
2021/07/20 14:45:00;;;;;;;2.60;2.27;;;;;;;32.67;26.31;100057.86;1721496;82;26524;-65
2021/07/20 14:47:44;;;;;;;2.95;2.40;;;;;;;32.47;26.51;100055.50;1723317;82;26068;-66
2021/07/20 14:50:31;;;;;;;2.22;1.35;;;;;;;32.37;27.20;100065.30;1723944;82;27336;-65
2021/07/20 14:53:22;;;;;;;1.67;1.50;;;;;;;32.31;26.95;100062.19;1720225;82;25796;-65
2021/07/20 14:55:52;;;;;;;1.50;1.40;;;;;;;32.18;27.40;100065.91;1720615;82;25701;-76
2021/07/20 14:58:29;;;;;;;3.00;1.30;;;;;;;32.03;27.56;100066.33;1723354;82;25796;-65
2021/07/20 15:01:01;;;;;;;4.62;1.17;;;;;;;31.91;27.79;100065.21;1719577;82;25758;-64
2021/07/20 15:03:39;;;;;;;58.78;55.80;;;;;;;31.84;27.90;100064.88;1723453;82;27312;-64
2021/07/20 15:06:29;;;;;;;59.55;56.45;;;;;;;31.73;27.80;100058.94;1724824;82;27101;-65
2021/07/20 15:09:19;;;;;;;61.33;58.23;;;;;;;31.63;27.80;100060.91;1711363;82;25812;-65
2021/07/20 15:11:55;;;;;;;58.92;56.02;;;;;;;31.54;27.90;100065.71;1719530;82;25830;-65
2021/07/20 15:14:29;;;;;;;61.00;57.90;;;;;;;31.39;27.80;100062.66;1719902;82;25723;-65
2021/07/20 15:17:03;;;;;;;59.10;56.23;;;;;;;31.27;27.93;100066.47;1714189;82;27342;-65
2021/07/20 15:19:42;;;;;;;2.17;1.30;;;;;;;31.13;28.17;100062.84;1704570;83;25818;-65
2021/07/20 15:22:23;;;;;;;2.08;1.37;;;;;;;31.03;28.25;100071.77;1764330;80;25839;-65
2021/07/20 15:24:56;;;;;;;1.70;1.40;;;;;;;30.94;28.32;100079.30;1719916;83;25769;-65
2021/07/20 15:27:25;;;;;;;60.65;57.08;;;;;;;30.80;28.45;100075.79;1757834;80;25833;-65
2021/07/20 15:29:55;;;;;;;57.83;54.93;;;;;;;30.65;28.92;100076.91;1754287;80;27307;-65
2021/07/20 15:32:27;;;;;;;3.45;1.80;;;;;;;30.58;28.83;100076.36;1751375;80;25755;-65
2021/07/20 15:34:54;;;;;;;3.58;1.60;;;;;;;30.42;29.20;100074.53;1769484;80;25696;-65
2021/07/20 15:37:27;;;;;;;3.67;1.75;;;;;;;30.30;29.10;100071.91;1770777;80;25735;-65
2021/07/20 15:39:58;;;;;;;3.22;1.70;;;;;;;30.16;29.16;100075.97;1758492;80;25681;-65
2021/07/20 15:42:47;;;;;;;3.42;1.50;;;;;;;30.04;29.28;100073.38;1760228;80;27522;-65
2021/07/20 15:45:21;;;;;;;4.28;2.22;;;;;;;29.92;29.66;100077.73;1765729;80;25746;-65
2021/07/20 15:48:00;;;;;;;2.70;1.62;;;;;;;29.72;29.60;100075.77;1764021;80;25741;-65
2021/07/20 15:50:30;;;;;;;1.60;1.42;;;;;;;29.57;30.09;100079.60;1759383;80;25797;-65
2021/07/20 15:53:06;;;;;;;3.67;1.82;;;;;;;29.41;30.48;100082.66;1769613;80;25701;-65
2021/07/20 15:55:38;;;;;;;2.27;1.62;;;;;;;29.27;30.91;100081.70;1761626;80;27348;-66
2021/07/20 15:58:05;;;;;;;4.17;1.57;;;;;;;29.16;31.16;100077.82;1757464;80;25776;-66
2021/07/20 16:00:33;;;;;;;61.08;57.83;;;;;;;29.09;31.34;100078.00;1770870;80;25724;-65
2021/07/20 16:03:11;;;;;;;62.50;59.27;;;;;;;28.95;31.53;100072.86;1760626;80;26404;-64
2021/07/20 16:05:39;;;;;;;62.58;59.38;;;;;;;28.82;32.13;100065.84;1760408;80;25711;-65
2021/07/20 16:08:08;;;;;;;64.10;60.70;;;;;;;28.70;32.49;100078.48;1738564;81;28425;-65
2021/07/20 16:10:35;;;;;;;61.85;58.55;;;;;;;28.60;32.91;100077.55;1763649;80;25836;-64
2021/07/20 16:13:05;;;;;;;64.27;61.02;;;;;;;28.45;33.13;100072.97;1760370;80;25789;-65
2021/07/20 16:15:33;;;;;;;;;;;;;;;28.38;33.57;100080.08;1768225;80;26128;-65
2021/07/20 16:18:08;;;;;;;62.25;58.60;;;;;;;28.32;33.77;100081.23;1760538;80;33170;-65
2021/07/20 16:20:54;;;;;;;63.25;59.98;;;;;;;28.20;33.92;100082.56;1758855;80;27407;-65
2021/07/20 16:23:25;;;;;;;62.13;59.03;;;;;;;28.10;34.12;100074.65;1759362;80;25832;-65
2021/07/20 16:26:03;;;;;;;62.90;59.50;;;;;;;27.99;34.26;100074.89;1759596;80;25824;-64
2021/07/20 16:28:30;;;;;;;61.28;58.17;;;;;;;27.93;34.45;100078.03;1770350;80;25772;-65
2021/07/20 16:30:58;;;;;;;63.95;60.63;;;;;;;27.85;34.65;100075.98;1768921;80;25645;-76
2021/07/20 16:33:27;;;;;;;1.90;1.62;;;;;;;27.82;34.74;100086.61;1760603;80;28220;-75
2021/07/20 16:36:01;;;;;;;2.47;1.60;;;;;;;27.76;34.86;100084.16;1780982;80;25719;-76
2021/07/20 16:38:28;;;;;;;2.67;1.70;;;;;;;27.65;35.05;100081.63;1781044;80;25697;-74
2021/07/20 16:41:00;;;;;;;6.67;1.60;;;;;;;27.55;35.18;100079.88;1776267;80;26601;-74
2021/07/20 16:43:34;;;;;;;3.27;1.70;;;;;;;27.48;35.38;100080.01;1778769;80;25720;-76
2021/07/20 16:46:10;;;;;;;4.90;2.55;;;;;;;27.42;35.31;100083.14;1779490;80;27889;-75
2021/07/20 16:48:40;;;;;;;2.37;1.45;;;;;;;27.48;35.25;100084.98;1779138;80;25747;-75
2021/07/20 16:51:14;;;;;;;65.40;61.85;;;;;;;27.39;35.20;100086.92;1755075;80;25959;-76
2021/07/20 16:53:50;;;;;;;3.83;2.90;;;;;;;27.24;35.38;100089.80;1750078;80;25803;-76
2021/07/20 16:56:21;;;;;;;5.72;2.95;;;;;;;27.10;35.62;100089.49;1751263;80;25734;-76
2021/07/20 16:58:51;;;;;;;5.95;2.00;;;;;;;26.98;35.93;100085.98;1781650;80;27387;-76
2021/07/20 17:01:22;;;;;;;2.90;1.70;;;;;;;26.88;36.01;100086.97;1777292;80;25787;-75
2021/07/20 17:03:53;;;;;;;2.50;1.57;;;;;;;26.77;36.27;100094.13;1780358;80;25683;-76
2021/07/20 17:06:32;;;;;;;2.08;1.60;;;;;;;26.64;36.51;100093.95;1779587;80;26139;-75
2021/07/20 17:09:12;;;;;;;5.03;1.77;;;;;;;26.56;36.77;100100.20;1781336;80;26610;-74
2021/07/20 17:11:41;;;;;;;2.62;1.50;;;;;;;26.47;37.03;100101.34;1778396;80;28033;-75
2021/07/20 17:14:08;;;;;;;4.85;1.67;;;;;;;26.37;37.36;100100.92;1779022;80;25775;-66
2021/07/20 17:16:37;;;;;;;3.67;1.80;;;;;;;26.27;37.45;100104.05;1780552;79;25681;-77
2021/07/20 17:19:09;;;;;;;4.37;2.22;;;;;;;26.19;37.56;100108.16;1775779;80;27768;-75
2021/07/20 17:21:38;;;;;;;3.50;2.10;;;;;;;26.12;37.71;100108.26;1780863;80;25700;-75
2021/07/20 17:24:10;;;;;;;3.72;1.70;;;;;;;26.04;37.93;100112.53;1775521;80;27353;-65
2021/07/20 17:26:43;;;;;;;2.12;1.65;;;;;;;25.97;37.97;100109.88;1779417;80;26169;-66
2021/07/20 17:29:23;;;;;;;3.42;1.50;;;;;;;25.92;38.16;100110.32;1777629;80;25739;-66